Time;durP1;ratioP1;P1;durP2;ratioP2;P2;SDS_P1;SDS_P2;PMS_P1;PMS_P2;Temp;Humidity;BMP_temperature;BMP_pressure;BME280_temperature;BME280_humidity;BME280_pressure;Samples;Min_cycle;Max_cycle;Signal;HPM_P1;HPM_P2
2021/07/17 00:02:18;;;;;;;24.67;7.70;;;;;;;17.56;79.39;102537.13;5054381;28;20372;-36
2021/07/17 00:04:44;;;;;;;;;;;;;;;17.75;78.84;102551.56;5055843;28;20079;-36
2021/07/17 00:07:09;;;;;;;19.50;7.43;;;;;;;17.62;79.82;102552.63;5055038;28;19908;-36
2021/07/17 00:09:35;;;;;;;;;;;;;;;17.74;78.57;102552.66;5053867;28;20427;-36
2021/07/17 00:12:00;;;;;;;25.52;8.18;;;;;;;17.54;79.71;102542.03;5054690;28;19909;-36
2021/07/17 00:14:27;;;;;;;;;;;;;;;17.65;78.84;102557.59;5054756;28;20410;-36
2021/07/17 00:16:52;;;;;;;27.15;8.15;;;;;;;17.61;80.01;102552.84;5054650;28;19905;-36
2021/07/17 00:19:18;;;;;;;;;;;;;;;17.72;79.03;102560.25;5054719;28;20039;-36
2021/07/17 00:21:43;;;;;;;24.00;8.02;;;;;;;17.64;80.31;102557.84;5054542;28;19904;-36
2021/07/17 00:24:09;;;;;;;;;;;;;;;17.76;79.20;102555.97;5054360;28;20377;-36
2021/07/17 00:26:34;;;;;;;22.88;7.93;;;;;;;17.59;79.96;102544.06;5054927;28;19931;-36
2021/07/17 00:28:59;;;;;;;;;;;;;;;17.75;79.21;102552.41;5054217;28;20110;-36
2021/07/17 00:31:25;;;;;;;25.92;7.53;;;;;;;17.69;79.89;102556.06;5053964;28;19909;-36
2021/07/17 00:33:50;;;;;;;;;;;;;;;17.77;79.23;102552.19;5054179;28;20350;-36
2021/07/17 00:36:15;;;;;;;32.87;9.00;;;;;;;17.57;80.61;102546.16;5053760;28;20359;-36
2021/07/17 00:38:40;;;;;;;24.13;8.60;;;;;;;17.61;79.94;102548.19;5053841;28;20837;-36
2021/07/17 00:41:06;;;;;;;;;;;;;;;17.73;79.01;102549.09;5054392;28;20354;-36
2021/07/17 00:43:32;;;;;;;23.00;8.25;;;;;;;17.62;80.96;102544.41;5053887;28;19912;-36
2021/07/17 00:45:57;;;;;;;24.67;8.77;;;;;;;17.56;80.96;102547.25;5054124;28;20096;-36
2021/07/17 00:48:23;;;;;;;23.27;7.93;;;;;;;17.49;81.16;102539.16;5053686;28;20477;-36
2021/07/17 00:50:49;;;;;;;;;;;;;;;17.73;79.80;102551.00;5054467;28;20469;-36
2021/07/17 00:53:14;;;;;;;20.48;7.70;;;;;;;17.62;80.54;102547.16;5053737;28;19905;-36
2021/07/17 00:55:42;;;;;;;;;;;;;;;17.71;79.73;102545.72;5054172;28;20512;-36
2021/07/17 00:58:10;;;;;;;20.48;7.38;;;;;;;17.61;81.13;102547.38;5053880;28;19909;-36
2021/07/17 01:00:35;;;;;;;19.02;8.00;;;;;;;17.55;81.94;102551.06;5054212;28;20020;-36
2021/07/17 01:03:07;;;;;;;18.20;7.88;;;;;;;17.53;80.55;102543.09;5053559;28;20017;-36
2021/07/17 01:05:33;;;;;;;22.27;8.10;;;;;;;17.49;80.22;102544.63;5054407;28;20323;-36
2021/07/17 01:07:58;;;;;;;;;;;;;;;17.65;79.85;102543.09;5054156;28;20051;-36
2021/07/17 01:10:24;;;;;;;17.88;7.68;;;;;;;17.49;80.08;102529.06;5054063;28;19908;-36
2021/07/17 01:12:50;;;;;;;;;;;;;;;17.66;79.50;102547.50;5053912;28;20028;-36
2021/07/17 01:15:16;;;;;;;21.52;7.65;;;;;;;17.41;80.08;102542.22;5053447;28;20003;-36
2021/07/17 01:17:42;;;;;;;20.92;7.20;;;;;;;17.44;80.32;102539.03;5053458;28;20445;-36
2021/07/17 01:20:10;;;;;;;20.02;7.30;;;;;;;17.48;80.00;102548.44;5053496;28;20061;-35
2021/07/17 01:22:39;;;;;;;25.38;8.60;;;;;;;17.34;80.83;102541.53;5053319;28;20021;-36
2021/07/17 01:25:11;;;;;;;25.13;8.10;;;;;;;17.33;80.24;102545.34;5053449;28;20025;-36
2021/07/17 01:27:37;;;;;;;26.50;9.32;;;;;;;17.30;80.35;102546.63;5052976;28;20021;-36
2021/07/17 01:30:06;;;;;;;23.20;8.10;;;;;;;17.29;81.38;102538.66;5053698;28;20021;-36
2021/07/17 01:32:31;;;;;;;19.08;6.68;;;;;;;17.33;80.71;102534.41;5052732;28;20033;-36
2021/07/17 01:34:57;;;;;;;20.58;7.25;;;;;;;17.36;81.26;102540.19;5053101;28;20075;-36
2021/07/17 01:37:22;;;;;;;;;;;;;;;17.50;80.29;102540.81;5053732;28;20021;-36
2021/07/17 01:39:47;;;;;;;20.07;8.20;;;;;;;17.25;80.69;102525.44;5053776;28;20360;-36
2021/07/17 01:42:13;;;;;;;;;;;;;;;17.46;79.86;102547.84;5053682;28;20032;-36
2021/07/17 01:44:43;;;;;;;21.77;7.80;;;;;;;17.33;80.83;102542.59;5053277;28;19912;-36
2021/07/17 01:47:15;;;;;;;26.00;8.00;;;;;;;17.39;80.57;102542.47;5053934;28;20392;-36
2021/07/17 01:49:41;;;;;;;27.58;8.90;;;;;;;17.29;80.62;102544.13;5057143;28;20025;-36
2021/07/17 01:52:08;;;;;;;21.58;8.27;;;;;;;17.33;80.39;102537.13;5055879;28;20028;-36
2021/07/17 01:54:34;;;;;;;22.02;8.65;;;;;;;17.32;80.61;102544.47;5057041;28;20094;-36
2021/07/17 01:57:01;;;;;;;22.50;7.65;;;;;;;17.27;81.23;102544.34;5056770;28;20107;-36
2021/07/17 01:59:27;;;;;;;24.27;8.75;;;;;;;17.30;81.28;102541.16;5056931;28;20369;-36
2021/07/17 02:01:52;;;;;;;20.52;8.65;;;;;;;17.22;81.03;102536.84;5057763;28;20029;-36
2021/07/17 02:04:18;;;;;;;;;;;;;;;17.42;80.25;102543.91;5058089;28;20484;-35
2021/07/17 02:06:43;;;;;;;21.63;7.57;;;;;;;17.11;80.49;102521.25;5057242;28;19904;-36
2021/07/17 02:09:08;;;;;;;21.57;8.23;;;;;;;17.17;81.18;102547.66;5056538;28;20271;-36
2021/07/17 02:11:33;;;;;;;24.87;8.13;;;;;;;17.21;81.37;102535.19;5057360;28;20267;-36
2021/07/17 02:13:59;;;;;;;22.67;8.05;;;;;;;17.30;80.90;102540.31;5056895;28;20303;-36
2021/07/17 02:16:24;;;;;;;20.90;7.65;;;;;;;17.24;80.83;102531.16;5057278;28;20029;-36
2021/07/17 02:18:50;;;;;;;;;;;;;;;17.35;80.44;102533.06;5057049;28;20052;-36
2021/07/17 02:21:16;;;;;;;21.87;7.80;;;;;;;17.21;80.66;102521.50;5057184;28;19958;-36
2021/07/17 02:23:42;;;;;;;19.42;8.05;;;;;;;17.25;81.46;102535.56;5056712;28;20075;-36
2021/07/17 02:26:07;;;;;;;;;;;;;;;17.34;80.63;102542.34;5057249;28;20031;-36
2021/07/17 02:28:34;;;;;;;20.80;7.97;;;;;;;17.20;81.07;102541.72;5056031;28;19908;-36
2021/07/17 02:30:59;;;;;;;;;;;;;;;17.32;80.68;102543.63;5057152;28;20053;-36
2021/07/17 02:33:24;;;;;;;23.20;7.90;;;;;;;17.08;81.23;102535.41;5056301;28;19954;-36
2021/07/17 02:35:49;;;;;;;26.02;8.50;;;;;;;17.01;81.31;102548.31;5056038;28;20255;-36
2021/07/17 02:38:16;;;;;;;;;;;;;;;17.18;80.36;102546.59;5056341;28;20043;-36
2021/07/17 02:40:41;;;;;;;20.77;9.02;;;;;;;17.01;81.20;102545.59;5056499;28;20419;-36
2021/07/17 02:43:06;;;;;;;24.27;8.45;;;;;;;17.07;81.61;102546.56;5056084;28;20024;-36
2021/07/17 02:45:32;;;;;;;;;;;;;;;17.13;80.86;102546.47;5056132;28;20033;-36
2021/07/17 02:47:57;;;;;;;22.33;8.03;;;;;;;17.07;81.39;102550.13;5055980;28;19908;-36
2021/07/17 02:50:22;;;;;;;23.50;8.13;;;;;;;17.03;81.65;102548.09;5056901;28;20263;-36
2021/07/17 02:52:48;;;;;;;;;;;;;;;17.11;80.59;102551.31;5056377;28;20024;-36
2021/07/17 02:55:14;;;;;;;20.48;7.75;;;;;;;16.96;81.42;102548.19;5056199;28;19912;-36
2021/07/17 02:57:40;;;;;;;19.80;7.93;;;;;;;16.99;81.63;102547.75;5056133;28;20036;-36
2021/07/17 03:00:08;;;;;;;23.20;7.38;;;;;;;16.94;81.90;102547.59;5055671;28;20024;-36
2021/07/17 03:02:33;;;;;;;26.15;8.80;;;;;;;16.96;81.69;102548.19;5055441;28;20021;-36
2021/07/17 03:04:59;;;;;;;25.00;8.30;;;;;;;16.93;81.79;102554.97;5055445;28;20028;-36
2021/07/17 03:07:24;;;;;;;;;;;;;;;17.03;80.75;102548.09;5055717;28;20098;-36
2021/07/17 03:09:49;;;;;;;17.20;8.17;;;;;;;16.96;81.39;102559.13;5055724;28;19909;-36
2021/07/17 03:12:15;;;;;;;19.27;7.68;;;;;;;16.94;82.29;102558.53;5055612;28;20268;-36
2021/07/17 03:14:40;;;;;;;;;;;;;;;17.01;81.21;102562.00;5056369;28;20032;-36
2021/07/17 03:17:05;;;;;;;21.13;8.47;;;;;;;16.87;81.42;102557.78;5055286;28;19908;-36
2021/07/17 03:19:30;;;;;;;20.92;8.75;;;;;;;16.83;81.80;102557.41;5055511;28;20346;-36
2021/07/17 03:21:56;;;;;;;20.25;7.80;;;;;;;16.94;81.49;102558.53;5055451;28;20027;-36
2021/07/17 03:24:21;;;;;;;;;;;;;;;17.02;80.80;102566.38;5055893;28;20025;-36
2021/07/17 03:26:46;;;;;;;22.37;8.40;;;;;;;16.79;81.12;102566.28;5055338;28;20334;-36
2021/07/17 03:29:12;;;;;;;;;;;;;;;16.91;80.80;102551.63;5055705;28;20029;-36
2021/07/17 03:31:37;;;;;;;18.00;8.20;;;;;;;16.73;81.35;102560.69;5055326;28;19908;-35
2021/07/17 03:34:02;;;;;;;;;;;;;;;16.85;80.86;102568.94;5055378;28;20079;-36
2021/07/17 03:36:28;;;;;;;27.80;8.38;;;;;;;16.73;81.50;102573.50;5055143;28;19911;-36
2021/07/17 03:38:53;;;;;;;;;;;;;;;16.87;81.04;102568.72;5055838;28;20080;-36
2021/07/17 03:41:19;;;;;;;22.03;7.23;;;;;;;16.79;81.72;102571.75;5055646;28;20402;-36
2021/07/17 03:43:45;;;;;;;23.15;8.30;;;;;;;16.79;81.27;102569.00;5055539;28;20275;-36
2021/07/17 03:46:11;;;;;;;;;;;;;;;16.89;80.85;102567.41;5055113;28;20031;-36
2021/07/17 03:48:37;;;;;;;26.60;8.68;;;;;;;16.73;81.57;102568.03;5054594;28;19909;-36
2021/07/17 03:51:02;;;;;;;22.25;8.48;;;;;;;16.70;81.75;102569.31;5054953;28;20021;-36
2021/07/17 03:53:28;;;;;;;18.45;7.10;;;;;;;16.72;82.40;102572.69;5054533;28;20105;-36
2021/07/17 03:55:53;;;;;;;22.00;7.93;;;;;;;16.66;81.79;102562.66;5054780;28;20025;-36
2021/07/17 03:58:19;;;;;;;19.95;7.78;;;;;;;16.63;82.15;102554.91;5055572;28;20100;-36
2021/07/17 04:00:44;;;;;;;22.42;8.25;;;;;;;16.57;82.27;102547.63;5055207;28;20029;-35
2021/07/17 04:03:10;;;;;;;;;;;;;;;16.76;81.52;102562.13;5055088;28;20415;-35
2021/07/17 04:05:35;;;;;;;22.10;7.57;;;;;;;16.71;82.08;102559.22;5054849;28;19909;-36
2021/07/17 04:08:00;;;;;;;22.10;7.80;;;;;;;16.67;82.51;102564.31;5054488;28;20096;-36
2021/07/17 04:10:26;;;;;;;20.02;8.98;;;;;;;16.62;82.68;102552.41;5054235;28;20259;-36
2021/07/17 04:12:51;;;;;;;;;;;;;;;16.82;81.81;102566.66;5054857;28;20017;-36
2021/07/17 04:15:16;;;;;;;23.08;8.88;;;;;;;16.66;82.51;102559.91;5055198;28;19952;-36
2021/07/17 04:17:42;;;;;;;;;;;;;;;16.84;81.49;102556.34;5054479;28;20484;-36
2021/07/17 04:20:09;;;;;;;24.27;8.20;;;;;;;16.75;82.50;102560.47;5053651;28;19976;-36
2021/07/17 04:22:35;;;;;;;27.10;8.57;;;;;;;16.76;82.83;102556.66;5054152;28;20836;-36
2021/07/17 04:25:02;;;;;;;21.58;7.60;;;;;;;16.70;82.22;102547.47;5055099;28;20021;-36
2021/07/17 04:27:27;;;;;;;20.88;7.72;;;;;;;16.78;81.94;102570.91;5053819;28;20450;-35
2021/07/17 04:29:52;;;;;;;22.73;8.07;;;;;;;16.83;82.14;102567.50;5053956;28;20025;-36
2021/07/17 04:32:18;;;;;;;;;;;;;;;16.94;81.37;102572.19;5054498;28;20408;-35
2021/07/17 04:34:43;;;;;;;19.80;8.03;;;;;;;16.77;82.25;102562.97;5054543;28;19912;-36
2021/07/17 04:37:08;;;;;;;;;;;;;;;16.91;81.22;102576.22;5055052;28;20021;-36
2021/07/17 04:39:33;;;;;;;21.57;8.23;;;;;;;16.78;81.70;102572.81;5054306;28;19917;-36
2021/07/17 04:41:59;;;;;;;25.02;9.20;;;;;;;16.60;82.50;102551.81;5054293;28;20248;-35
2021/07/17 04:44:24;;;;;;;;;;;;;;;16.84;81.79;102571.91;5054090;28;20029;-36
2021/07/17 04:46:49;;;;;;;21.35;8.80;;;;;;;16.76;82.79;102577.69;5054703;28;19943;-36
2021/07/17 04:49:15;;;;;;;;;;;;;;;16.83;81.69;102567.50;5054225;28;20108;-36
2021/07/17 04:51:40;;;;;;;20.70;9.00;;;;;;;16.76;82.46;102562.13;5054118;28;19905;-35
2021/07/17 04:54:05;;;;;;;22.35;8.98;;;;;;;16.72;82.86;102555.47;5053492;28;20278;-36
2021/07/17 04:56:31;;;;;;;;;;;;;;;16.92;82.18;102561.47;5053922;28;20056;-36
2021/07/17 04:58:56;;;;;;;23.63;9.40;;;;;;;16.91;82.51;102558.97;5053330;28;19904;-36
2021/07/17 05:01:21;;;;;;;;;;;;;;;17.03;81.63;102559.00;5054709;28;20048;-36
2021/07/17 05:03:47;;;;;;;26.20;8.90;;;;;;;16.96;82.48;102564.59;5053313;28;20002;-36
2021/07/17 05:06:13;;;;;;;20.20;8.05;;;;;;;17.00;82.43;102568.53;5052876;28;20029;-35
2021/07/17 05:08:38;;;;;;;22.65;8.77;;;;;;;16.98;82.55;102570.63;5053752;28;20408;-36
2021/07/17 05:11:03;;;;;;;24.53;8.50;;;;;;;16.98;83.00;102570.63;5053667;28;20025;-36
2021/07/17 05:13:29;;;;;;;30.00;9.55;;;;;;;16.91;82.88;102576.22;5054342;28;20260;-36
2021/07/17 05:15:54;;;;;;;;;;;;;;;17.06;82.23;102575.78;5054532;28;20025;-36
2021/07/17 05:18:21;;;;;;;22.73;9.27;;;;;;;16.94;83.45;102566.72;5053472;28;19928;-35
2021/07/17 05:20:47;;;;;;;25.83;9.10;;;;;;;16.97;84.31;102571.72;5053995;28;20112;-36
2021/07/17 05:23:12;;;;;;;22.17;8.52;;;;;;;16.96;84.55;102570.06;5056954;28;20087;-36
2021/07/17 05:25:38;;;;;;;;;;;;;;;17.11;83.20;102584.13;5058390;28;20021;-35
2021/07/17 05:28:04;;;;;;;22.73;8.68;;;;;;;16.94;84.17;102569.47;5057492;28;19999;-36
2021/07/17 05:30:29;;;;;;;;;;;;;;;17.13;82.73;102586.63;5058532;28;20048;-36
2021/07/17 05:32:54;;;;;;;18.92;8.00;;;;;;;17.07;83.68;102587.56;5057471;28;20360;-35
2021/07/17 05:35:20;;;;;;;;;;;;;;;17.14;82.67;102586.41;5057537;28;20021;-36
2021/07/17 05:37:45;;;;;;;23.88;9.15;;;;;;;17.10;84.23;102589.84;5057586;28;19971;-36
2021/07/17 05:40:11;;;;;;;;;;;;;;;17.23;83.16;102590.47;5058146;28;20044;-36
2021/07/17 05:42:37;;;;;;;27.88;10.00;;;;;;;17.21;83.83;102591.75;5057303;28;19935;-36
2021/07/17 05:45:03;;;;;;;23.17;9.70;;;;;;;17.25;83.83;102599.28;5057905;28;20062;-36
2021/07/17 05:47:29;;;;;;;;;;;;;;;17.38;83.00;102592.78;5057243;28;20457;-36
2021/07/17 05:49:54;;;;;;;25.38;8.95;;;;;;;17.28;83.04;102584.31;5057950;28;20321;-35
2021/07/17 05:52:19;;;;;;;24.60;8.98;;;;;;;17.35;83.69;102573.25;5057386;28;20052;-35
2021/07/17 05:54:44;;;;;;;;;;;;;;;17.57;83.12;102585.31;5057287;28;20407;-36
2021/07/17 05:57:10;;;;;;;24.23;8.85;;;;;;;17.51;82.94;102580.78;5057341;28;20455;-36
2021/07/17 05:59:38;;;;;;;;;;;;;;;17.71;82.53;102586.78;5057346;28;20036;-35
2021/07/17 06:02:04;;;;;;;27.48;9.20;;;;;;;17.60;82.72;102565.69;5056705;28;19908;-36
2021/07/17 06:04:30;;;;;;;25.85;9.18;;;;;;;17.73;82.89;102583.81;5057365;28;20020;-35
2021/07/17 06:06:56;;;;;;;25.80;9.23;;;;;;;17.89;82.60;102582.28;5057113;28;20364;-36
2021/07/17 06:09:21;;;;;;;;;;;;;;;18.09;82.21;102587.38;5056941;28;20021;-36
2021/07/17 06:11:46;;;;;;;23.33;8.37;;;;;;;18.02;81.76;102585.59;5056476;28;19905;-36
2021/07/17 06:14:11;;;;;;;;;;;;;;;18.18;81.78;102586.78;5057098;28;20291;-36
2021/07/17 06:16:37;;;;;;;23.02;8.60;;;;;;;18.04;81.85;102596.31;5056702;28;20011;-36
2021/07/17 06:19:02;;;;;;;;;;;;;;;18.19;81.25;102593.09;5057055;28;20057;-36
2021/07/17 06:21:27;;;;;;;24.07;7.63;;;;;;;18.03;81.68;102600.13;5056823;28;19905;-36
2021/07/17 06:23:53;;;;;;;22.80;7.85;;;;;;;18.09;81.20;102604.63;5056681;28;20255;-36
2021/07/17 06:26:18;;;;;;;27.55;8.48;;;;;;;18.15;80.90;102606.41;5056703;28;20031;-36
2021/07/17 06:28:43;;;;;;;19.55;7.70;;;;;;;18.12;82.35;102598.69;5056388;28;20028;-36
2021/07/17 06:31:09;;;;;;;24.33;8.05;;;;;;;18.03;81.72;102594.66;5056659;28;20025;-36
2021/07/17 06:33:34;;;;;;;;;;;;;;;18.31;81.28;102606.78;5056376;28;20346;-36
2021/07/17 06:36:00;;;;;;;21.95;7.90;;;;;;;18.22;81.80;102615.34;5056506;28;19905;-36
2021/07/17 06:38:25;;;;;;;;;;;;;;;18.36;81.26;102621.41;5056619;28;20052;-36
2021/07/17 06:40:51;;;;;;;19.87;7.43;;;;;;;18.28;80.79;102619.88;5056259;28;19909;-36
2021/07/17 06:43:16;;;;;;;;;;;;;;;18.40;80.73;102617.13;5056610;28;20092;-36
2021/07/17 06:45:41;;;;;;;20.00;6.57;;;;;;;18.28;80.89;102617.13;5056700;28;19909;-36
2021/07/17 06:48:06;;;;;;;;;;;;;;;18.41;80.91;102613.31;5056933;28;20024;-36
2021/07/17 06:50:32;;;;;;;18.23;7.17;;;;;;;18.36;80.66;102620.59;5056213;28;19971;-36
2021/07/17 06:52:57;;;;;;;;;;;;;;;18.45;80.51;102624.63;5056679;28;20277;-36
2021/07/17 06:55:22;;;;;;;17.83;7.10;;;;;;;18.37;80.99;102627.72;5071762;28;19912;-36
2021/07/17 06:57:47;;;;;;;;;;;;;;;18.52;80.87;102623.41;5076146;28;20346;-36
2021/07/17 07:00:15;;;;;;;23.00;7.37;;;;;;;18.62;81.70;102630.19;5075660;28;20356;-36
2021/07/17 07:02:41;;;;;;;23.52;7.47;;;;;;;18.73;80.41;102627.44;5076107;28;20266;-36
2021/07/17 07:05:07;;;;;;;;;;;;;;;18.95;80.68;102624.88;5076166;28;20060;-36
2021/07/17 07:07:33;;;;;;;22.23;6.75;;;;;;;19.07;79.31;102624.81;5075840;28;19916;-36
2021/07/17 07:09:58;;;;;;;;;;;;;;;19.24;79.53;102633.94;5076098;28;20024;-36
2021/07/17 07:12:23;;;;;;;17.27;5.63;;;;;;;19.07;78.36;102626.72;5076103;28;19904;-36
2021/07/17 07:14:48;;;;;;;;;;;;;;;19.16;79.13;102633.50;5076001;28;20368;-36
2021/07/17 07:17:14;;;;;;;20.00;6.67;;;;;;;18.94;79.45;102628.69;5075272;28;19958;-36
2021/07/17 07:19:39;;;;;;;;;;;;;;;19.16;79.57;102634.31;5076500;28;20275;-37
2021/07/17 07:22:04;;;;;;;68.53;8.77;;;;;;;19.01;78.71;102643.09;5075504;28;19908;-36
2021/07/17 07:24:30;;;;;;;;;;;;;;;19.14;78.75;102635.66;5075788;28;20267;-36
2021/07/17 07:26:56;;;;;;;14.85;5.57;;;;;;;18.96;78.48;102642.16;5075535;28;20041;-36
2021/07/17 07:29:25;;;;;;;26.35;6.35;;;;;;;18.98;78.91;102651.81;5074789;28;20456;-36
2021/07/17 07:31:51;;;;;;;17.45;6.38;;;;;;;18.86;79.11;102653.75;5075530;28;20035;-36
2021/07/17 07:34:17;;;;;;;19.50;5.90;;;;;;;18.92;79.38;102650.03;5075105;28;20431;-36
2021/07/17 07:36:42;;;;;;;;;;;;;;;19.12;79.45;102644.09;5074863;28;20029;-36
2021/07/17 07:39:07;;;;;;;20.73;5.50;;;;;;;19.18;79.29;102640.41;5075011;28;19912;-36
2021/07/17 07:41:33;;;;;;;;;;;;;;;19.38;78.73;102642.69;5075144;28;20279;-36
2021/07/17 07:43:59;;;;;;;31.30;6.38;;;;;;;19.39;77.71;102629.81;5074795;28;19908;-36
2021/07/17 07:46:24;;;;;;;;;;;;;;;19.64;78.33;102635.75;5074854;28;20078;-36
2021/07/17 07:48:49;;;;;;;16.87;4.77;;;;;;;19.80;76.34;102645.06;5073615;28;19909;-36
2021/07/17 07:51:15;;;;;;;18.25;5.97;;;;;;;19.86;75.81;102643.25;5074199;28;20024;-36
2021/07/17 07:53:40;;;;;;;;;;;;;;;20.06;77.11;102647.16;5074757;28;20444;-36
2021/07/17 07:56:06;;;;;;;18.67;5.63;;;;;;;20.05;76.17;102637.25;5075111;28;19904;-36
2021/07/17 07:58:32;;;;;;;17.38;4.95;;;;;;;20.08;74.45;102633.16;5075290;28;20046;-36
2021/07/17 08:00:57;;;;;;;;;;;;;;;20.23;75.25;102640.81;5075055;28;20020;-36
2021/07/17 08:03:23;;;;;;;14.15;4.75;;;;;;;20.17;74.19;102642.66;5074654;28;20239;-36
2021/07/17 08:05:48;;;;;;;;;;;;;;;20.31;75.09;102634.88;5074337;28;20433;-36
2021/07/17 08:08:13;;;;;;;12.70;4.27;;;;;;;20.24;74.17;102637.78;5074233;28;19916;-36
2021/07/17 08:10:39;;;;;;;;;;;;;;;20.38;73.88;102638.28;5074833;28;20263;-36
2021/07/17 08:13:04;;;;;;;12.02;4.75;;;;;;;20.20;72.67;102624.81;5074428;28;19931;-36
2021/07/17 08:15:29;;;;;;;;;;;;;;;20.48;74.42;102632.13;5075409;28;20031;-36
2021/07/17 08:17:54;;;;;;;12.65;4.40;;;;;;;20.47;73.32;102639.53;5074000;28;19915;-36
2021/07/17 08:20:20;;;;;;;12.70;5.03;;;;;;;20.44;71.20;102631.75;5074857;28;20020;-36
2021/07/17 08:22:45;;;;;;;;;;;;;;;20.53;72.86;102634.94;5074695;28;20043;-36
2021/07/17 08:25:11;;;;;;;15.50;4.95;;;;;;;20.50;72.72;102636.28;5074497;28;19911;-36
2021/07/17 08:27:37;;;;;;;19.67;5.50;;;;;;;20.54;72.38;102642.09;5073713;28;20052;-36
2021/07/17 08:30:04;;;;;;;11.43;4.63;;;;;;;20.69;73.28;102636.81;5074069;28;20024;-37
2021/07/17 08:32:30;;;;;;;11.52;4.50;;;;;;;20.75;72.21;102637.69;5073719;28;20472;-36
2021/07/17 08:34:55;;;;;;;;;;;;;;;20.94;72.57;102633.53;5074756;28;20029;-36
2021/07/17 08:37:20;;;;;;;15.23;5.17;;;;;;;20.93;71.06;102633.78;5073917;28;19904;-36
2021/07/17 08:39:46;;;;;;;10.27;4.35;;;;;;;20.90;71.66;102645.31;5074120;28;20041;-36
2021/07/17 08:42:13;;;;;;;;;;;;;;;21.06;72.35;102644.38;5074256;28;20111;-36
2021/07/17 08:44:39;;;;;;;13.00;4.40;;;;;;;21.04;71.15;102646.56;5074085;28;19912;-36
2021/07/17 08:47:06;;;;;;;;;;;;;;;21.14;70.15;102635.69;5074968;28;20039;-36
2021/07/17 08:49:33;;;;;;;10.65;4.60;;;;;;;21.04;70.21;102635.56;5073844;28;19915;-36
2021/07/17 08:52:00;;;;;;;13.68;3.80;;;;;;;21.22;69.53;102635.19;5074127;28;20453;-36
2021/07/17 08:54:26;;;;;;;13.88;4.63;;;;;;;21.23;68.64;102638.81;5073794;28;20024;-36
2021/07/17 08:56:52;;;;;;;9.18;4.05;;;;;;;21.25;69.08;102636.63;5073622;28;20444;-36
2021/07/17 08:59:18;;;;;;;;;;;;;;;21.46;70.26;102632.16;5074119;28;20031;-36
2021/07/17 09:01:43;;;;;;;12.43;4.90;;;;;;;21.49;70.32;102620.63;5074276;28;19908;-37
2021/07/17 09:04:08;;;;;;;14.05;4.07;;;;;;;21.59;66.26;102635.31;5073588;28;20028;-37
2021/07/17 09:06:35;;;;;;;8.93;3.53;;;;;;;21.73;67.90;102627.47;5073973;28;20059;-37
2021/07/17 09:09:02;;;;;;;8.25;3.17;;;;;;;21.82;65.77;102634.13;5073745;28;20024;-36
2021/07/17 09:11:39;;;;;;;13.00;4.10;;;;;;;21.89;67.31;102631.16;5073542;28;20021;-36
2021/07/17 09:14:06;;;;;;;8.68;3.38;;;;;;;21.92;65.50;102635.31;5073819;28;20016;-36
2021/07/17 09:16:32;;;;;;;10.70;3.50;;;;;;;21.83;63.31;102638.53;5073708;28;20021;-36
2021/07/17 09:18:59;;;;;;;10.20;3.38;;;;;;;21.89;65.29;102633.06;5073752;28;20111;-36
2021/07/17 09:21:29;;;;;;;7.07;2.85;;;;;;;22.07;64.37;102621.66;5073277;28;20411;-37
2021/07/17 09:23:59;;;;;;;10.40;3.58;;;;;;;22.17;64.24;102624.50;5073982;28;20029;-36
2021/07/17 09:26:27;;;;;;;10.02;3.63;;;;;;;22.36;64.59;102633.97;5073829;28;20028;-36
2021/07/17 09:29:07;;;;;;;11.52;3.08;;;;;;;22.49;64.58;102623.56;5073831;28;20108;-36
2021/07/17 09:31:48;;;;;;;12.88;3.13;;;;;;;22.49;62.94;102638.16;5073889;28;20062;-37
2021/07/17 09:34:15;;;;;;;9.00;3.13;;;;;;;22.45;62.77;102639.81;5073367;28;20411;-37
2021/07/17 09:36:54;;;;;;;8.13;2.85;;;;;;;22.43;63.82;102633.72;5072994;28;20044;-36
2021/07/17 09:39:22;;;;;;;8.60;3.10;;;;;;;22.54;63.19;102629.09;5073038;28;20075;-36
2021/07/17 09:42:06;;;;;;;7.88;2.45;;;;;;;22.75;64.06;102616.25;5073826;28;20050;-36
2021/07/17 09:44:33;;;;;;;9.50;3.13;;;;;;;22.79;63.44;102615.44;5073004;28;20023;-36
2021/07/17 09:46:59;;;;;;;11.45;3.00;;;;;;;22.79;59.94;102625.59;5073730;28;20017;-36
2021/07/17 09:49:28;;;;;;;7.80;2.83;;;;;;;22.88;61.56;102627.59;5073410;28;20028;-36
2021/07/17 09:52:14;;;;;;;9.02;3.00;;;;;;;22.87;62.45;102612.13;5073495;28;20052;-36
2021/07/17 09:55:00;;;;;;;11.05;2.92;;;;;;;22.95;60.43;102619.09;5073105;28;20483;-37
2021/07/17 09:57:29;;;;;;;5.07;2.20;;;;;;;23.20;63.36;102615.56;5073093;28;20468;-37
2021/07/17 10:00:05;;;;;;;6.60;2.58;;;;;;;23.23;61.17;102623.28;5073383;28;20433;-36
2021/07/17 10:02:31;;;;;;;7.82;2.63;;;;;;;23.43;61.00;102625.25;5072957;28;20025;-37
2021/07/17 10:04:56;;;;;;;8.48;2.50;;;;;;;23.38;58.29;102631.59;5072676;28;20562;-37
2021/07/17 10:07:22;;;;;;;7.22;2.42;;;;;;;23.42;58.55;102614.47;5073623;28;20075;-36
2021/07/17 10:09:49;;;;;;;5.72;2.17;;;;;;;23.55;58.66;102609.22;5075700;28;20020;-37
2021/07/17 10:12:14;;;;;;;6.50;2.42;;;;;;;23.59;56.81;102621.38;5077048;28;20024;-36
2021/07/17 10:14:41;;;;;;;7.72;2.42;;;;;;;23.66;58.07;102618.34;5076704;28;20033;-36
2021/07/17 10:17:11;;;;;;;6.93;1.98;;;;;;;23.62;58.55;102620.00;5077200;28;20073;-37
2021/07/17 10:19:38;;;;;;;7.80;2.13;;;;;;;23.39;56.79;102616.69;5076884;28;20024;-36
2021/07/17 10:22:06;;;;;;;6.97;2.47;;;;;;;23.33;57.46;102612.25;5075656;28;20028;-36
2021/07/17 10:24:33;;;;;;;7.63;2.95;;;;;;;23.53;58.98;102605.09;5076460;28;20026;-36
2021/07/17 10:26:59;;;;;;;8.68;2.50;;;;;;;23.47;58.64;102615.28;5076324;28;20016;-37
2021/07/17 10:29:26;;;;;;;5.72;2.10;;;;;;;23.45;58.87;102605.63;5076086;28;20024;-36
2021/07/17 10:31:52;;;;;;;5.93;2.10;;;;;;;23.59;58.58;102609.50;5076357;28;20020;-36
2021/07/17 10:34:20;;;;;;;7.40;2.53;;;;;;;23.59;57.09;102613.09;5076637;28;20098;-37
2021/07/17 10:37:02;;;;;;;9.88;2.22;;;;;;;23.92;58.70;102607.31;5076304;28;20033;-36
2021/07/17 10:39:32;;;;;;;6.72;2.67;;;;;;;24.06;56.46;102624.94;5076712;28;20041;-37
2021/07/17 10:41:59;;;;;;;6.45;2.00;;;;;;;23.95;56.18;102612.25;5075921;28;20360;-36
2021/07/17 10:44:48;;;;;;;7.28;2.33;;;;;;;24.15;56.51;102602.00;5076092;28;20032;-36
2021/07/17 10:47:15;;;;;;;5.10;1.83;;;;;;;24.18;57.55;102600.63;5076388;28;20024;-37
2021/07/17 10:49:52;;;;;;;8.27;2.10;;;;;;;24.14;56.56;102610.56;5076069;28;20073;-37
2021/07/17 10:52:38;;;;;;;7.05;2.15;;;;;;;24.30;57.52;102598.38;5076680;28;20020;-37
2021/07/17 10:55:26;;;;;;;5.97;1.90;;;;;;;24.49;57.71;102608.84;5076018;28;20038;-36
2021/07/17 10:57:52;;;;;;;6.22;2.30;;;;;;;24.53;57.56;102593.34;5076838;28;20066;-36
2021/07/17 11:00:43;;;;;;;5.60;2.05;;;;;;;24.75;56.43;102610.38;5076198;28;20090;-37
2021/07/17 11:03:21;;;;;;;5.85;1.92;;;;;;;24.90;55.13;102606.72;5076137;28;20013;-36
2021/07/17 11:05:47;;;;;;;6.22;1.75;;;;;;;25.08;54.32;102602.47;5076074;28;20021;-37
2021/07/17 11:08:32;;;;;;;5.97;2.38;;;;;;;24.71;54.41;102589.94;5075716;28;20367;-37
2021/07/17 11:10:57;;;;;;;5.38;1.73;;;;;;;24.81;54.94;102595.41;5076564;28;20059;-37
2021/07/17 11:13:36;;;;;;;4.82;1.67;;;;;;;25.06;55.00;102605.50;5075955;28;20063;-37
2021/07/17 11:16:03;;;;;;;5.32;2.15;;;;;;;25.10;54.80;102605.78;5075913;28;20020;-37
2021/07/17 11:18:34;;;;;;;5.38;2.00;;;;;;;25.30;54.04;102608.41;5075398;28;20032;-37
2021/07/17 11:21:01;;;;;;;5.57;2.00;;;;;;;25.27;53.37;102605.38;5075172;28;20024;-37
2021/07/17 11:23:40;;;;;;;4.22;1.83;;;;;;;25.31;53.83;102587.09;5075718;28;20476;-37
2021/07/17 11:26:09;;;;;;;11.02;2.33;;;;;;;25.33;52.72;102602.31;5076231;28;20414;-37
2021/07/17 11:28:44;;;;;;;4.85;1.75;;;;;;;25.38;52.81;102605.03;5075224;28;20059;-37
2021/07/17 11:31:27;;;;;;;7.35;2.05;;;;;;;25.52;51.89;102591.31;5075644;28;20024;-37
2021/07/17 11:34:14;;;;;;;5.65;1.70;;;;;;;25.57;53.54;102593.22;5075227;28;20024;-37
2021/07/17 11:36:53;;;;;;;;;;;;;;;25.78;52.86;102594.75;5075334;28;20031;-37